createdAt,value
2022-12-01T00:02:06.077Z,21.27
2022-12-01T00:04:37.983Z,18.58
2022-12-01T00:07:11.728Z,20.38
2022-12-01T00:09:55.292Z,20.40
2022-12-01T00:12:26.302Z,19.98
2022-12-01T00:15:01.268Z,19.92
2022-12-01T00:17:33.959Z,16.75
2022-12-01T00:20:05.507Z,19.08
2022-12-01T00:22:39.551Z,15.77
2022-12-01T00:25:11.204Z,15.90
2022-12-01T00:27:42.994Z,16.35
2022-12-01T00:30:16.821Z,15.25
2022-12-01T00:32:48.916Z,16.58
2022-12-01T00:35:21.325Z,16.50
2022-12-01T00:37:55.833Z,18.13
2022-12-01T00:40:27.359Z,18.73
2022-12-01T00:42:59.886Z,18.10
2022-12-01T00:45:31.581Z,15.35
2022-12-01T00:48:03.094Z,18.00
2022-12-01T00:50:34.673Z,15.52
2022-12-01T00:53:09.654Z,15.90
2022-12-01T00:55:41.451Z,17.70
2022-12-01T00:58:14.586Z,19.45
2022-12-01T01:00:47.010Z,16.42
2022-12-01T01:03:18.041Z,15.32
2022-12-01T01:05:49.083Z,17.75
2022-12-01T01:08:23.275Z,15.13
2022-12-01T01:10:54.641Z,16.42
2022-12-01T01:13:26.423Z,16.33
2022-12-01T01:16:02.662Z,15.95
2022-12-01T01:18:35.527Z,17.23
2022-12-01T01:21:09.696Z,15.18
2022-12-01T01:23:44.870Z,19.23
2022-12-01T01:26:18.806Z,19.70
2022-12-01T01:28:51.543Z,15.18
2022-12-01T01:31:27.462Z,16.00
2022-12-01T01:34:00.082Z,15.70
2022-12-01T01:36:31.513Z,20.10
2022-12-01T01:39:05.905Z,16.58
2022-12-01T01:41:37.723Z,17.20
2022-12-01T01:44:39.527Z,15.88
2022-12-01T01:47:10.769Z,18.35
2022-12-01T01:49:43.093Z,16.70
2022-12-01T01:52:14.619Z,17.00
2022-12-01T01:54:52.414Z,16.92
2022-12-01T01:57:28.822Z,16.38
2022-12-01T02:00:05.230Z,16.50
2022-12-01T02:02:47.047Z,15.93
2022-12-01T02:05:26.384Z,18.63
2022-12-01T02:08:01.756Z,14.45
2022-12-01T02:10:46.480Z,15.23
2022-12-01T02:13:29.241Z,16.85
2022-12-01T02:16:08.929Z,18.02
2022-12-01T02:18:49.333Z,16.08
2022-12-01T02:21:40.705Z,14.93
2022-12-01T02:24:47.422Z,16.00
2022-12-01T02:27:36.928Z,15.15
2022-12-01T02:30:14.467Z,15.18
2022-12-01T02:33:10.158Z,15.77
2022-12-01T02:35:47.560Z,15.02
2022-12-01T02:38:25.582Z,18.75
2022-12-01T02:41:02.652Z,16.27
2022-12-01T02:46:13.567Z,17.42
2022-12-01T02:48:52.270Z,16.85
2022-12-01T02:51:29.327Z,18.92
2022-12-01T02:54:02.430Z,20.45
2022-12-01T02:56:34.357Z,16.92
2022-12-01T02:59:05.772Z,17.98
2022-12-01T03:01:53.167Z,16.65
2022-12-01T03:07:24.534Z,14.48
2022-12-01T03:10:04.432Z,16.25
2022-12-01T03:12:42.735Z,20.17
2022-12-01T03:15:22.441Z,14.73
2022-12-01T03:18:02.057Z,16.27
2022-12-01T03:20:38.969Z,17.13
2022-12-01T03:25:49.183Z,20.13
2022-12-01T03:28:24.070Z,17.55
2022-12-01T03:30:59.169Z,20.85
2022-12-01T03:33:37.243Z,17.13
2022-12-01T03:36:15.315Z,17.05
2022-12-01T03:38:53.665Z,20.08
2022-12-01T03:41:31.717Z,20.77
2022-12-01T03:44:11.604Z,18.42
2022-12-01T03:46:50.023Z,16.70
2022-12-01T03:49:21.980Z,16.52
2022-12-01T03:52:03.676Z,18.17
2022-12-01T03:54:47.422Z,17.92
2022-12-01T03:57:21.787Z,14.55
2022-12-01T03:59:53.348Z,15.98
2022-12-01T04:02:27.878Z,18.02
2022-12-01T04:04:59.225Z,16.70
2022-12-01T04:07:30.766Z,16.42
2022-12-01T04:10:04.759Z,17.02
2022-12-01T04:12:33.578Z,17.30
2022-12-01T04:15:08.661Z,19.23
2022-12-01T04:17:40.194Z,19.40
2022-12-01T04:20:13.199Z,16.73
2022-12-01T04:22:44.244Z,16.25
2022-12-01T04:25:18.064Z,18.95
2022-12-01T04:27:49.188Z,17.08
2022-12-01T04:30:21.165Z,15.77
2022-12-01T04:32:52.218Z,19.45
2022-12-01T04:35:23.712Z,17.92
2022-12-01T04:37:55.060Z,19.40
2022-12-01T04:40:29.464Z,20.38
2022-12-01T04:43:00.976Z,20.52
2022-12-01T04:45:32.909Z,21.42
2022-12-01T04:48:04.840Z,20.48
2022-12-01T04:50:35.901Z,17.17
2022-12-01T04:53:08.362Z,18.33
2022-12-01T04:55:44.578Z,20.67
2022-12-01T04:58:15.585Z,18.33
2022-12-01T05:00:47.456Z,15.45
2022-12-01T05:03:20.143Z,16.65
2022-12-01T05:05:51.951Z,15.13
2022-12-01T05:08:23.301Z,16.13
2022-12-01T05:10:59.876Z,19.27
2022-12-01T05:13:31.958Z,18.45
2022-12-01T05:16:09.215Z,19.88
2022-12-01T05:18:40.621Z,17.38
2022-12-01T05:21:12.777Z,23.63
2022-12-01T05:23:44.911Z,15.90
2022-12-01T05:26:18.849Z,15.77
2022-12-01T05:28:49.852Z,18.02
2022-12-01T05:31:20.884Z,18.35
2022-12-01T05:33:51.811Z,20.42
2022-12-01T05:36:23.189Z,20.65
2022-12-01T05:38:55.162Z,17.33
2022-12-01T05:41:29.473Z,16.65
2022-12-01T05:44:00.695Z,20.88
2022-12-01T05:46:31.690Z,19.60
2022-12-01T05:49:02.618Z,16.25
2022-12-01T05:51:33.679Z,18.88
2022-12-01T05:54:05.530Z,20.08
2022-12-01T05:56:40.166Z,18.00
2022-12-01T05:59:11.271Z,20.25
2022-12-01T06:01:42.535Z,21.27
2022-12-01T06:04:13.876Z,20.40
2022-12-01T06:06:45.378Z,21.48
2022-12-01T06:09:16.428Z,19.58
2022-12-01T06:11:52.487Z,21.33
2022-12-01T06:14:24.073Z,19.95
2022-12-01T06:16:55.464Z,20.65
2022-12-01T06:19:26.567Z,21.25
2022-12-01T06:21:57.538Z,19.30
2022-12-01T06:24:28.769Z,22.55
2022-12-01T06:27:03.323Z,21.52
2022-12-01T06:29:40.580Z,20.75
2022-12-01T06:32:13.727Z,21.38
2022-12-01T06:34:44.741Z,20.48
2022-12-01T06:37:17.087Z,21.80
2022-12-01T06:39:48.728Z,19.67
2022-12-01T06:42:22.975Z,22.13
2022-12-01T06:44:54.225Z,19.63
2022-12-01T06:47:25.123Z,23.00
2022-12-01T06:49:56.736Z,20.70
2022-12-01T06:52:27.836Z,20.80
2022-12-01T06:54:59.181Z,21.25
2022-12-01T06:57:33.462Z,22.58
2022-12-01T07:00:05.203Z,23.20
2022-12-01T07:02:36.874Z,20.92
2022-12-01T07:05:09.272Z,21.90
2022-12-01T07:07:41.197Z,23.08
2022-12-01T07:10:14.538Z,21.30
2022-12-01T07:12:49.321Z,24.02
2022-12-01T07:15:21.286Z,21.40
2022-12-01T07:17:52.737Z,20.15
2022-12-01T07:20:24.123Z,27.55
2022-12-01T07:22:57.214Z,25.88
2022-12-01T07:25:28.335Z,23.63
2022-12-01T07:28:02.776Z,22.48
2022-12-01T07:30:34.236Z,23.92
2022-12-01T07:33:07.377Z,21.77
2022-12-01T07:35:39.844Z,23.58
2022-12-01T07:38:11.974Z,25.05
2022-12-01T07:40:43.699Z,23.33
2022-12-01T07:43:17.822Z,27.20
2022-12-01T07:45:49.800Z,22.48
2022-12-01T07:48:21.951Z,22.33
2022-12-01T07:50:53.522Z,22.63
2022-12-01T07:53:25.122Z,22.60
2022-12-01T07:55:56.121Z,33.30
2022-12-01T07:58:29.967Z,30.42
2022-12-01T08:01:01.566Z,27.00
2022-12-01T08:03:32.971Z,26.05
2022-12-01T08:06:05.640Z,25.10
2022-12-01T08:08:37.774Z,26.38
2022-12-01T08:11:10.677Z,21.92
2022-12-01T08:13:46.101Z,25.35
2022-12-01T08:16:20.614Z,28.17
2022-12-01T08:18:52.743Z,26.55
2022-12-01T08:21:26.093Z,23.77
2022-12-01T08:23:58.399Z,21.52
2022-12-01T08:26:30.948Z,16.98
2022-12-01T08:29:05.337Z,18.63
2022-12-01T08:31:40.444Z,17.02
2022-12-01T08:34:11.870Z,18.67
2022-12-01T08:36:43.328Z,19.15
2022-12-01T08:39:16.306Z,20.73
2022-12-01T08:41:47.874Z,19.42
2022-12-01T08:44:23.747Z,18.85
2022-12-01T08:46:56.043Z,16.27
2022-12-01T08:49:27.519Z,16.13
2022-12-01T08:51:58.388Z,19.13
2022-12-01T08:54:29.479Z,15.55
2022-12-01T08:57:00.994Z,16.42
2022-12-01T08:59:35.190Z,18.35
2022-12-01T09:02:11.174Z,16.70
2022-12-01T09:04:42.276Z,13.55
2022-12-01T09:07:15.490Z,15.32
2022-12-01T09:09:47.923Z,14.68
2022-12-01T09:12:19.505Z,18.08
2022-12-01T09:14:53.505Z,20.85
2022-12-01T09:17:24.824Z,16.67
2022-12-01T09:19:56.399Z,17.65
2022-12-01T09:22:27.732Z,17.92
2022-12-01T09:24:58.591Z,20.20
2022-12-01T09:27:29.925Z,21.23
2022-12-01T09:30:04.017Z,20.02
2022-12-01T09:32:35.362Z,20.50
2022-12-01T09:35:06.705Z,22.95
2022-12-01T09:37:37.520Z,21.50
2022-12-01T09:40:10.020Z,21.85
2022-12-01T09:42:41.836Z,21.10
2022-12-01T09:45:28.849Z,22.00
2022-12-01T09:48:02.770Z,23.08
2022-12-01T09:50:34.635Z,25.85
2022-12-01T09:53:10.631Z,30.73
2022-12-01T09:55:44.427Z,32.40
2022-12-01T09:58:20.842Z,31.20
2022-12-01T10:00:56.028Z,33.67
2022-12-01T10:03:36.602Z,28.27
2022-12-01T10:06:27.364Z,29.58
2022-12-01T10:09:08.314Z,30.08
2022-12-01T10:11:42.145Z,52.72
2022-12-01T10:14:20.191Z,48.00
2022-12-01T10:17:03.825Z,29.80
2022-12-01T10:19:42.859Z,28.27
2022-12-01T10:22:46.707Z,28.90
2022-12-01T10:25:25.702Z,31.42
2022-12-01T10:28:08.289Z,28.17
2022-12-01T10:30:44.048Z,35.25
2022-12-01T10:33:28.266Z,34.05
2022-12-01T10:36:00.504Z,30.17
2022-12-01T10:38:33.622Z,30.63
2022-12-01T10:41:08.415Z,33.88
2022-12-01T10:43:45.604Z,28.83
2022-12-01T10:46:28.311Z,31.35
2022-12-01T10:49:10.088Z,26.20
2022-12-01T10:51:54.005Z,30.75
2022-12-01T10:54:26.503Z,27.55
2022-12-01T10:57:00.600Z,33.30
2022-12-01T10:59:36.651Z,30.70
2022-12-01T11:02:17.697Z,27.85
2022-12-01T11:04:57.154Z,31.58
2022-12-01T11:07:32.018Z,27.00
2022-12-01T11:10:18.771Z,32.00
2022-12-01T11:12:58.891Z,29.33
2022-12-01T11:15:33.365Z,28.20
2022-12-01T11:18:06.592Z,34.10
2022-12-01T11:20:42.696Z,31.40
2022-12-01T11:23:28.738Z,32.92
2022-12-01T11:26:04.822Z,33.45
2022-12-01T11:28:38.570Z,35.90
2022-12-01T11:31:12.140Z,39.85
2022-12-01T11:33:51.241Z,38.33
2022-12-01T11:36:39.634Z,39.55
2022-12-01T11:39:24.690Z,41.28
2022-12-01T11:42:00.104Z,37.83
2022-12-01T11:44:50.943Z,41.67
2022-12-01T11:47:24.994Z,44.88
2022-12-01T11:49:58.853Z,41.08
2022-12-01T11:52:37.258Z,32.53
2022-12-01T11:55:25.051Z,39.17
2022-12-01T11:57:58.702Z,38.33
2022-12-01T12:00:33.125Z,36.42
2022-12-01T12:03:24.000Z,35.67
2022-12-01T12:06:39.496Z,31.98
2022-12-01T12:09:27.138Z,36.83
2022-12-01T12:12:08.620Z,34.25
2022-12-01T12:14:51.296Z,34.33
2022-12-01T12:17:39.590Z,34.80
2022-12-01T12:20:34.816Z,35.53
2022-12-01T12:23:25.000Z,32.17
2022-12-01T12:26:07.199Z,36.25
2022-12-01T12:28:55.181Z,33.13
2022-12-01T12:31:36.449Z,36.60
2022-12-01T12:34:24.210Z,38.22
2022-12-01T12:37:06.177Z,33.55
2022-12-01T12:39:55.272Z,30.52
2022-12-01T12:42:45.298Z,31.20
2022-12-01T12:45:26.462Z,37.50
2022-12-01T12:48:14.820Z,33.45
2022-12-01T12:50:52.634Z,36.58
2022-12-01T12:53:26.900Z,32.53
2022-12-01T12:56:02.751Z,31.80
2022-12-01T12:58:40.455Z,33.45
2022-12-01T13:01:19.276Z,28.10
2022-12-01T13:03:56.927Z,31.15
2022-12-01T13:06:31.430Z,30.63
2022-12-01T13:09:08.522Z,31.30
2022-12-01T13:11:45.558Z,33.60
2022-12-01T13:14:26.144Z,31.05
2022-12-01T13:17:01.930Z,31.80
2022-12-01T13:19:35.922Z,30.80
2022-12-01T13:22:09.127Z,31.27
2022-12-01T13:24:40.382Z,25.50
2022-12-01T13:27:21.477Z,27.40
2022-12-01T13:29:57.583Z,27.92
2022-12-01T13:32:35.316Z,24.67
2022-12-01T13:35:09.255Z,25.35
2022-12-01T13:37:42.082Z,24.67
2022-12-01T13:40:24.546Z,26.10
2022-12-01T13:43:04.213Z,21.55
2022-12-01T13:45:44.560Z,21.13
2022-12-01T13:48:31.993Z,20.80
2022-12-01T13:51:05.211Z,19.15
2022-12-01T13:53:38.455Z,16.42
2022-12-01T13:56:29.775Z,20.23
2022-12-01T13:59:00.844Z,17.02
2022-12-01T14:01:52.188Z,14.93
2022-12-01T14:04:42.502Z,15.93
2022-12-01T14:07:23.801Z,14.48
2022-12-01T14:09:56.473Z,14.02
2022-12-01T14:12:34.906Z,14.43
2022-12-01T14:15:24.411Z,13.82
2022-12-01T14:18:08.542Z,13.63
2022-12-01T14:20:48.797Z,14.63
2022-12-01T14:23:25.955Z,15.57
2022-12-01T14:26:06.602Z,12.20
2022-12-01T14:29:08.062Z,12.95
2022-12-01T14:32:23.954Z,15.90
2022-12-01T14:35:12.159Z,12.88
2022-12-01T14:37:53.781Z,12.52
2022-12-01T14:40:32.473Z,11.60
2022-12-01T14:43:18.746Z,11.30
2022-12-01T14:46:00.681Z,14.98
2022-12-01T14:48:40.834Z,8.40
2022-12-01T14:51:27.431Z,9.50
2022-12-01T14:54:00.499Z,9.00
2022-12-01T14:56:33.946Z,11.23
2022-12-01T14:59:17.033Z,8.73
2022-12-01T15:01:49.784Z,9.95
2022-12-01T15:04:22.364Z,11.13
2022-12-01T15:07:00.970Z,10.05
2022-12-01T15:09:35.190Z,12.63
2022-12-01T15:12:10.599Z,9.20
2022-12-01T15:14:52.188Z,10.38
2022-12-01T15:17:35.263Z,9.27
2022-12-01T15:20:07.772Z,10.50
2022-12-01T15:22:45.070Z,12.93
2022-12-01T15:25:19.549Z,11.45
2022-12-01T15:28:05.417Z,13.98
2022-12-01T15:30:37.159Z,21.10
2022-12-01T15:33:09.791Z,11.68
2022-12-01T15:35:41.550Z,13.18
2022-12-01T15:38:21.576Z,13.63
2022-12-01T15:41:21.094Z,10.23
2022-12-01T15:43:46.261Z,11.88
2022-12-01T15:46:19.936Z,10.52
2022-12-01T15:48:51.145Z,11.77
2022-12-01T15:51:28.570Z,11.35
2022-12-01T15:54:08.865Z,13.02
2022-12-01T15:56:42.227Z,10.73
2022-12-01T15:59:26.999Z,11.10
2022-12-01T16:01:58.966Z,13.07
2022-12-01T16:04:33.071Z,12.10
2022-12-01T16:07:09.026Z,15.25
2022-12-01T16:09:46.030Z,15.88
2022-12-01T16:12:27.144Z,13.20
2022-12-01T16:15:07.230Z,13.60
2022-12-01T16:17:47.507Z,16.77
2022-12-01T16:20:26.586Z,16.27
2022-12-01T16:23:01.810Z,16.02
2022-12-01T16:25:39.063Z,14.95
2022-12-01T16:28:23.238Z,16.38
2022-12-01T16:30:58.315Z,18.63
2022-12-01T16:33:31.734Z,18.75
2022-12-01T16:36:03.841Z,19.67
2022-12-01T16:38:36.659Z,17.08
2022-12-01T16:41:20.515Z,16.73
2022-12-01T16:44:20.282Z,15.48
2022-12-01T16:46:45.482Z,14.10
2022-12-01T16:49:17.109Z,16.30
2022-12-01T16:51:55.940Z,12.68
2022-12-01T16:54:28.855Z,12.32
2022-12-01T16:57:03.018Z,12.77
2022-12-01T16:59:34.442Z,12.77
2022-12-01T17:02:05.794Z,14.88
2022-12-01T17:04:37.682Z,14.27
2022-12-01T17:07:10.044Z,17.55
2022-12-01T17:09:41.330Z,15.02
2022-12-01T17:12:15.021Z,18.98
2022-12-01T17:14:47.924Z,20.30
2022-12-01T17:17:20.344Z,22.35
2022-12-01T17:19:52.493Z,24.48
2022-12-01T17:22:24.650Z,23.48
2022-12-01T17:24:56.033Z,19.55
2022-12-01T17:27:31.814Z,23.13
2022-12-01T17:30:07.298Z,21.67
2022-12-01T17:32:38.593Z,23.15
2022-12-01T17:35:14.715Z,25.20
2022-12-01T17:37:50.082Z,26.58
2022-12-01T17:40:28.541Z,22.98
2022-12-01T17:43:07.255Z,21.73
2022-12-01T17:45:42.294Z,21.67
2022-12-01T17:48:16.667Z,19.25
2022-12-01T17:50:47.885Z,21.90
2022-12-01T17:53:22.643Z,22.23
2022-12-01T17:55:54.567Z,23.98
2022-12-01T17:58:30.092Z,26.95
2022-12-01T18:01:02.984Z,23.20
2022-12-01T18:03:38.460Z,27.23
2022-12-01T18:06:11.104Z,27.98
2022-12-01T18:08:47.057Z,24.95
2022-12-01T18:11:21.013Z,26.25
2022-12-01T18:13:56.763Z,23.55
2022-12-01T18:16:32.362Z,27.67
2022-12-01T18:19:05.375Z,24.45
2022-12-01T18:21:37.054Z,24.98
2022-12-01T18:24:10.738Z,20.52
2022-12-01T18:26:46.927Z,18.10
2022-12-01T18:29:27.025Z,22.33
2022-12-01T18:32:00.087Z,34.55
2022-12-01T18:34:34.668Z,23.92
2022-12-01T18:37:06.902Z,27.90
2022-12-01T18:39:39.541Z,23.60
2022-12-01T18:42:11.017Z,22.77
2022-12-01T18:44:45.536Z,21.85
2022-12-01T18:47:17.007Z,20.73
2022-12-01T18:49:48.211Z,22.08
2022-12-01T18:52:21.401Z,24.50
2022-12-01T18:54:53.363Z,22.85
2022-12-01T18:57:24.714Z,23.95
2022-12-01T18:59:58.787Z,25.63
2022-12-01T19:02:30.118Z,25.23
2022-12-01T19:05:01.501Z,25.70
2022-12-01T19:07:33.235Z,27.98
2022-12-01T19:10:07.733Z,25.95
2022-12-01T19:12:41.200Z,24.95
2022-12-01T19:15:16.887Z,24.10
2022-12-01T19:17:48.657Z,27.95
2022-12-01T19:20:21.664Z,26.45
2022-12-01T19:22:53.126Z,27.60
2022-12-01T19:25:25.424Z,29.42
2022-12-01T19:27:56.267Z,26.67
2022-12-01T19:30:30.141Z,31.33
2022-12-01T19:33:01.993Z,27.02
2022-12-01T19:35:34.884Z,26.73
2022-12-01T19:38:07.053Z,29.52
2022-12-01T19:40:42.423Z,31.20
2022-12-01T19:43:13.402Z,32.70
2022-12-01T19:45:46.945Z,33.33
2022-12-01T19:48:18.539Z,29.23
2022-12-01T19:50:49.543Z,28.75
2022-12-01T19:53:20.490Z,30.52
2022-12-01T19:55:52.222Z,25.67
2022-12-01T19:58:26.153Z,28.42
2022-12-01T20:01:06.443Z,29.27
2022-12-01T20:03:38.057Z,29.63
2022-12-01T20:06:11.840Z,30.50
2022-12-01T20:08:43.585Z,31.23
2022-12-01T20:11:15.197Z,28.92
2022-12-01T20:13:48.402Z,30.20
2022-12-01T20:16:24.348Z,28.65
2022-12-01T20:18:56.296Z,28.50
2022-12-01T20:21:29.172Z,28.38
2022-12-01T20:24:02.139Z,24.88
2022-12-01T20:26:35.452Z,28.95
2022-12-01T20:29:09.021Z,30.58
2022-12-01T20:31:43.315Z,26.73
2022-12-01T20:34:18.236Z,27.00
2022-12-01T20:36:49.455Z,29.67
2022-12-01T20:39:21.409Z,27.20
2022-12-01T20:41:53.110Z,28.67
2022-12-01T20:44:24.979Z,29.27
2022-12-01T20:46:58.976Z,33.45
2022-12-01T20:49:30.119Z,31.35
2022-12-01T20:52:01.969Z,33.35
2022-12-01T20:54:32.883Z,30.25
2022-12-01T20:57:04.147Z,29.85
2022-12-01T20:59:35.847Z,28.70
2022-12-01T21:02:09.994Z,33.15
2022-12-01T21:04:41.537Z,35.85
2022-12-01T21:07:13.398Z,35.33
2022-12-01T21:09:44.748Z,32.13
2022-12-01T21:12:30.618Z,30.67
2022-12-01T21:15:09.327Z,34.20
2022-12-01T21:17:48.246Z,31.00
2022-12-01T21:20:27.329Z,34.58
2022-12-01T21:23:04.351Z,31.90
2022-12-01T21:28:19.019Z,30.80
2022-12-01T21:30:51.031Z,34.22
2022-12-01T21:33:35.412Z,37.28
2022-12-01T21:36:11.014Z,33.90
2022-12-01T21:38:42.598Z,34.75
2022-12-01T21:41:21.743Z,32.67
2022-12-01T21:43:52.785Z,31.35
2022-12-01T21:46:24.224Z,36.63
2022-12-01T21:48:59.675Z,35.22
2022-12-01T21:51:31.146Z,34.28
2022-12-01T21:54:02.542Z,34.20
2022-12-01T21:56:34.262Z,33.80
2022-12-01T21:59:15.044Z,33.95
2022-12-01T22:01:46.011Z,37.42
2022-12-01T22:04:25.383Z,35.25
2022-12-01T22:06:58.355Z,35.33
2022-12-01T22:09:32.980Z,33.40
2022-12-01T22:12:19.587Z,30.98
2022-12-01T22:14:51.199Z,36.10
2022-12-01T22:17:25.553Z,36.80
2022-12-01T22:20:01.378Z,39.35
2022-12-01T22:22:34.136Z,38.20
2022-12-01T22:25:19.211Z,32.58
2022-12-01T22:27:50.274Z,35.28
2022-12-01T22:30:24.217Z,38.42
2022-12-01T22:33:00.084Z,36.08
2022-12-01T22:35:45.862Z,34.95
2022-12-01T22:38:33.602Z,34.47
2022-12-01T22:41:07.732Z,34.05
2022-12-01T22:43:57.943Z,33.10
2022-12-01T22:46:36.205Z,33.00
2022-12-01T22:49:20.241Z,32.03
2022-12-01T22:51:54.964Z,33.15
2022-12-01T22:54:37.702Z,37.10
2022-12-01T22:57:29.042Z,33.92
2022-12-01T23:00:01.043Z,38.70
2022-12-01T23:02:36.737Z,41.72
2022-12-01T23:05:23.409Z,31.42
2022-12-01T23:07:59.418Z,37.17
2022-12-01T23:10:34.370Z,35.47
2022-12-01T23:13:17.927Z,39.60
2022-12-01T23:15:51.561Z,41.50
2022-12-01T23:18:25.772Z,34.00
2022-12-01T23:20:58.567Z,34.03
2022-12-01T23:23:34.988Z,34.78
2022-12-01T23:26:08.028Z,37.80
2022-12-01T23:28:41.566Z,37.75
2022-12-01T23:31:13.356Z,37.53
2022-12-01T23:33:44.856Z,36.33
2022-12-01T23:36:20.502Z,38.70
2022-12-01T23:38:59.337Z,43.80
2022-12-01T23:41:36.799Z,41.65
2022-12-01T23:44:17.405Z,42.25
2022-12-01T23:46:50.679Z,42.15
2022-12-01T23:49:25.922Z,38.72
2022-12-01T23:51:58.972Z,41.97
2022-12-01T23:54:35.221Z,40.42
2022-12-01T23:57:08.084Z,37.38
2022-12-01T23:59:41.412Z,41.53
